createdAt,value
2022-09-30T00:01:01.208Z,100322.38
2022-09-30T00:03:28.877Z,100333.88
2022-09-30T00:05:58.384Z,100336.75
2022-09-30T00:08:24.951Z,100335.22
2022-09-30T00:11:04.642Z,100338.09
2022-09-30T00:13:31.849Z,100339.56
2022-09-30T00:15:58.351Z,100338.81
2022-09-30T00:18:24.704Z,100343.09
2022-09-30T00:20:51.021Z,100351.72
2022-09-30T00:23:17.338Z,100344.59
2022-09-30T00:25:43.645Z,100346.72
2022-09-30T00:28:10.021Z,100351.00
2022-09-30T00:30:36.326Z,100341.63
2022-09-30T00:33:02.659Z,100350.91
2022-09-30T00:35:29.001Z,100346.66
2022-09-30T00:37:55.332Z,100345.16
2022-09-30T00:40:21.642Z,100348.03
2022-09-30T00:42:47.969Z,100345.16
2022-09-30T00:45:14.354Z,100343.78
2022-09-30T00:48:04.852Z,100350.19
2022-09-30T00:50:33.067Z,100353.00
2022-09-30T00:53:10.399Z,100352.25
2022-09-30T00:55:36.730Z,100349.47
2022-09-30T00:58:03.170Z,100354.41
2022-09-30T01:00:29.679Z,100352.25
2022-09-30T01:02:56.066Z,100358.00
2022-09-30T01:05:23.038Z,100360.06
2022-09-30T01:07:49.497Z,100361.63
2022-09-30T01:10:15.922Z,100355.06
2022-09-30T01:12:42.269Z,100359.34
2022-09-30T01:15:09.568Z,100360.72
2022-09-30T01:17:43.014Z,100375.13
2022-09-30T01:20:27.036Z,100370.09
2022-09-30T01:23:02.897Z,100373.66
2022-09-30T01:25:34.812Z,100369.44
2022-09-30T01:28:01.061Z,100373.66
2022-09-30T01:30:45.757Z,100374.38
2022-09-30T01:33:17.734Z,100374.38
2022-09-30T01:35:51.393Z,100374.38
2022-09-30T01:38:24.993Z,100363.44
2022-09-30T01:40:58.798Z,100364.94
2022-09-30T01:43:32.153Z,100367.75
2022-09-30T01:46:15.023Z,100359.84
2022-09-30T01:48:44.326Z,100367.81
2022-09-30T01:51:18.085Z,100370.69
2022-09-30T01:53:49.667Z,100369.22
2022-09-30T01:56:15.901Z,100367.00
2022-09-30T01:58:43.273Z,100372.09
2022-09-30T02:01:11.742Z,100364.78
2022-09-30T02:03:40.042Z,100361.91
2022-09-30T02:06:10.459Z,100359.69
2022-09-30T02:08:42.925Z,100367.00
2022-09-30T02:11:10.798Z,100368.47
2022-09-30T02:13:39.542Z,100370.53
2022-09-30T02:16:12.800Z,100367.59
2022-09-30T02:18:41.469Z,100371.28
2022-09-30T02:21:07.802Z,100364.78
2022-09-30T02:23:35.173Z,100370.53
2022-09-30T02:26:21.675Z,100371.28
2022-09-30T02:28:49.604Z,100374.81
2022-09-30T02:31:16.029Z,100367.59
2022-09-30T02:33:43.572Z,100374.81
2022-09-30T02:36:11.062Z,100366.19
2022-09-30T02:38:39.211Z,100366.94
2022-09-30T02:41:10.378Z,100371.28
2022-09-30T02:43:36.723Z,100377.09
2022-09-30T02:46:10.890Z,100390.16
2022-09-30T02:48:47.828Z,100388.03
2022-09-30T02:51:18.697Z,100387.34
2022-09-30T02:54:01.698Z,100389.59
2022-09-30T02:56:40.066Z,100390.31
2022-09-30T02:59:06.390Z,100387.44
2022-09-30T03:01:32.764Z,100391.03
2022-09-30T03:03:59.743Z,100403.97
2022-09-30T03:06:26.046Z,100398.94
2022-09-30T03:08:53.000Z,100401.81
2022-09-30T03:11:22.714Z,100401.16
2022-09-30T03:13:59.902Z,100395.41
2022-09-30T03:16:30.707Z,100408.31
2022-09-30T03:19:04.530Z,100411.34
2022-09-30T03:21:49.433Z,100417.19
2022-09-30T03:24:23.223Z,100415.72
2022-09-30T03:26:58.490Z,100404.19
2022-09-30T03:29:43.452Z,100418.66
2022-09-30T03:32:24.446Z,100406.41
2022-09-30T03:34:57.715Z,100414.22
2022-09-30T03:37:27.136Z,100417.91
2022-09-30T03:40:01.232Z,100419.41
2022-09-30T03:42:29.171Z,100414.38
2022-09-30T03:45:09.854Z,100410.03
2022-09-30T03:47:38.806Z,100421.59
2022-09-30T03:50:06.576Z,100425.31
2022-09-30T03:52:32.896Z,100420.28
2022-09-30T03:54:59.637Z,100426.69
2022-09-30T03:57:28.596Z,100429.78
2022-09-30T03:59:55.309Z,100433.19
2022-09-30T04:02:21.662Z,100435.69
2022-09-30T04:04:48.002Z,100440.13
2022-09-30T04:07:14.340Z,100445.22
2022-09-30T04:09:40.839Z,100443.16
2022-09-30T04:12:07.305Z,100443.16
2022-09-30T04:14:34.320Z,100443.22
2022-09-30T04:17:00.651Z,100441.09
2022-09-30T04:19:26.952Z,100446.19
2022-09-30T04:21:53.515Z,100446.84
2022-09-30T04:24:20.413Z,100453.34
2022-09-30T04:26:46.823Z,100449.72
2022-09-30T04:29:13.145Z,100453.34
2022-09-30T04:31:39.539Z,100460.50
2022-09-30T04:34:06.219Z,100464.84
2022-09-30T04:36:32.532Z,100471.28
2022-09-30T04:38:59.864Z,100471.50
2022-09-30T04:41:26.748Z,100467.81
2022-09-30T04:43:53.064Z,100476.53
2022-09-30T04:46:19.928Z,100488.09
2022-09-30T04:48:46.309Z,100486.69
2022-09-30T04:51:13.217Z,100488.84
2022-09-30T04:53:39.897Z,100493.22
2022-09-30T04:56:06.221Z,100498.22
2022-09-30T04:58:36.801Z,100498.22
2022-09-30T05:01:03.814Z,100498.22
2022-09-30T05:03:30.151Z,100506.91
2022-09-30T05:05:56.453Z,100498.38
2022-09-30T05:08:23.027Z,100503.63
2022-09-30T05:10:57.216Z,100500.16
2022-09-30T05:13:24.248Z,100496.94
2022-09-30T05:15:50.621Z,100508.94
2022-09-30T05:18:16.973Z,100515.97
2022-09-30T05:20:43.597Z,100522.75
2022-09-30T05:23:09.910Z,100519.31
2022-09-30T05:25:36.230Z,100528.75
2022-09-30T05:28:02.550Z,100527.84
2022-09-30T05:30:28.853Z,100529.16
2022-09-30T05:32:55.158Z,100535.09
2022-09-30T05:35:21.463Z,100538.88
2022-09-30T05:37:47.797Z,100526.63
2022-09-30T05:40:14.121Z,100537.81
2022-09-30T05:42:40.440Z,100540.59
2022-09-30T05:45:06.921Z,100535.75
2022-09-30T05:47:33.457Z,100541.16
2022-09-30T05:50:19.767Z,100543.16
2022-09-30T05:52:46.238Z,100551.84
2022-09-30T05:55:12.555Z,100548.78
2022-09-30T05:57:39.302Z,100556.81
2022-09-30T06:00:06.818Z,100556.69
2022-09-30T06:02:38.534Z,100564.09
2022-09-30T06:05:05.354Z,100563.28
2022-09-30T06:07:32.789Z,100563.28
2022-09-30T06:09:59.110Z,100558.31
2022-09-30T06:12:27.354Z,100559.88
2022-09-30T06:14:53.663Z,100568.31
2022-09-30T06:17:19.978Z,100574.47
2022-09-30T06:19:46.301Z,100569.53
2022-09-30T06:22:12.638Z,100575.41
2022-09-30T06:24:38.956Z,100570.59
2022-09-30T06:27:05.854Z,100575.59
2022-09-30T06:29:32.170Z,100573.84
2022-09-30T06:31:58.589Z,100577.47
2022-09-30T06:34:24.975Z,100576.66
2022-09-30T06:36:51.318Z,100577.88
2022-09-30T06:39:17.632Z,100580.84
2022-09-30T06:41:44.117Z,100588.88
2022-09-30T06:44:13.429Z,100598.00
2022-09-30T06:46:51.528Z,100588.19
2022-09-30T06:49:19.765Z,100601.88
2022-09-30T06:51:46.091Z,100602.19
2022-09-30T06:54:13.519Z,100598.03
2022-09-30T06:56:39.836Z,100604.59
2022-09-30T06:59:06.942Z,100607.59
2022-09-30T07:01:33.273Z,100603.41
2022-09-30T07:03:59.614Z,100602.00
2022-09-30T07:06:29.125Z,100612.13
2022-09-30T07:08:56.792Z,100616.53
2022-09-30T07:11:23.944Z,100616.47
2022-09-30T07:13:50.253Z,100607.84
2022-09-30T07:16:17.435Z,100610.16
2022-09-30T07:18:44.902Z,100619.50
2022-09-30T07:21:13.446Z,100622.38
2022-09-30T07:23:45.565Z,100623.88
2022-09-30T07:26:11.885Z,100616.63
2022-09-30T07:28:39.406Z,100621.81
2022-09-30T07:31:31.551Z,100616.81
2022-09-30T07:33:56.788Z,100626.84
2022-09-30T07:36:32.116Z,100635.56
2022-09-30T07:39:00.253Z,100638.50
2022-09-30T07:41:29.970Z,100629.03
2022-09-30T07:43:56.608Z,100633.28
2022-09-30T07:46:27.520Z,100622.72
2022-09-30T07:48:54.857Z,100613.38
2022-09-30T07:51:22.705Z,100619.63
2022-09-30T07:53:49.852Z,100624.38
2022-09-30T07:56:16.263Z,100629.53
2022-09-30T07:58:42.701Z,100627.94
2022-09-30T08:01:09.086Z,100641.28
2022-09-30T08:03:39.230Z,100634.13
2022-09-30T08:06:12.575Z,100632.56
2022-09-30T08:08:38.919Z,100641.22
2022-09-30T08:11:06.827Z,100648.38
2022-09-30T08:13:33.141Z,100639.47
2022-09-30T08:15:59.484Z,100649.84
2022-09-30T08:18:25.861Z,100646.88
2022-09-30T08:20:52.172Z,100646.94
2022-09-30T08:23:18.509Z,100656.09
2022-09-30T08:25:44.927Z,100650.59
2022-09-30T08:28:11.329Z,100660.47
2022-09-30T08:30:37.732Z,100667.31
2022-09-30T08:33:04.121Z,100659.91
2022-09-30T08:35:30.435Z,100662.88
2022-09-30T08:37:56.741Z,100662.88
2022-09-30T08:40:30.743Z,100665.66
2022-09-30T08:43:03.755Z,100667.13
2022-09-30T08:45:39.076Z,100677.19
2022-09-30T08:50:48.870Z,100681.59
2022-09-30T08:53:23.951Z,100677.09
2022-09-30T08:55:50.274Z,100688.03
2022-09-30T08:58:20.106Z,100694.53
2022-09-30T09:00:46.730Z,100688.88
2022-09-30T09:03:13.080Z,100685.16
2022-09-30T09:05:51.695Z,100687.28
2022-09-30T09:08:21.912Z,100698.88
2022-09-30T09:10:51.094Z,100689.75
2022-09-30T09:13:26.462Z,100685.66
2022-09-30T09:15:57.365Z,100692.34
2022-09-30T09:18:27.721Z,100695.22
2022-09-30T09:20:55.255Z,100684.41
2022-09-30T09:23:21.979Z,100691.06
2022-09-30T09:25:50.851Z,100691.06
2022-09-30T09:28:22.799Z,100685.72
2022-09-30T09:30:51.408Z,100682.75
2022-09-30T09:33:25.741Z,100691.31
2022-09-30T09:36:10.778Z,100687.94
2022-09-30T09:38:44.950Z,100691.66
2022-09-30T09:41:14.283Z,100688.72
2022-09-30T09:43:51.047Z,100682.34
2022-09-30T09:46:20.967Z,100677.81
2022-09-30T09:48:47.347Z,100673.84
2022-09-30T09:51:16.301Z,100675.91
2022-09-30T09:53:49.881Z,100676.03
2022-09-30T09:56:37.849Z,100668.66
2022-09-30T09:59:19.410Z,100667.41
2022-09-30T10:01:50.464Z,100663.69
2022-09-30T10:04:23.611Z,100666.78
2022-09-30T10:06:54.024Z,100665.06
2022-09-30T10:09:28.058Z,100670.56
2022-09-30T10:12:06.700Z,100662.59
2022-09-30T10:14:36.651Z,100663.50
2022-09-30T10:17:03.731Z,100663.34
2022-09-30T10:19:30.685Z,100657.00
2022-09-30T10:22:08.878Z,100658.78
2022-09-30T10:24:38.323Z,100658.34
2022-09-30T10:27:04.771Z,100662.44
2022-09-30T10:29:31.994Z,100657.84
2022-09-30T10:32:02.387Z,100650.31
2022-09-30T10:34:28.704Z,100657.72
2022-09-30T10:36:55.352Z,100653.28
2022-09-30T10:39:24.943Z,100649.28
2022-09-30T10:41:51.929Z,100656.41
2022-09-30T10:44:21.808Z,100656.97
2022-09-30T10:46:48.603Z,100654.75
2022-09-30T10:49:28.259Z,100646.44
2022-09-30T10:51:55.265Z,100641.19
2022-09-30T10:54:33.185Z,100642.88
2022-09-30T10:57:01.042Z,100641.44
2022-09-30T10:59:30.067Z,100648.66
2022-09-30T11:02:01.971Z,100647.28
2022-09-30T11:04:33.970Z,100644.97
2022-09-30T11:07:02.052Z,100644.72
2022-09-30T11:09:44.540Z,100642.81
2022-09-30T11:12:11.032Z,100631.63
2022-09-30T11:14:39.597Z,100631.44
2022-09-30T11:17:10.873Z,100624.78
2022-09-30T11:19:43.482Z,100630.38
2022-09-30T11:22:26.369Z,100624.75
2022-09-30T11:24:52.710Z,100623.28
2022-09-30T11:27:22.308Z,100622.84
2022-09-30T11:29:51.530Z,100629.00
2022-09-30T11:32:23.876Z,100622.56
2022-09-30T11:35:02.974Z,100625.06
2022-09-30T11:37:50.202Z,100626.84
2022-09-30T11:40:24.716Z,100631.72
2022-09-30T11:42:55.384Z,100637.94
2022-09-30T11:45:21.787Z,100632.91
2022-09-30T11:47:48.285Z,100629.94
2022-09-30T11:50:25.994Z,100626.03
2022-09-30T11:52:55.531Z,100628.03
2022-09-30T11:55:37.182Z,100620.63
2022-09-30T11:58:22.388Z,100620.94
2022-09-30T12:00:52.504Z,100633.50
2022-09-30T12:03:30.158Z,100628.34
2022-09-30T12:05:57.457Z,100634.59
2022-09-30T12:08:36.491Z,100629.97
2022-09-30T12:11:13.667Z,100635.03
2022-09-30T12:13:41.262Z,100620.75
2022-09-30T12:16:09.991Z,100622.31
2022-09-30T12:18:37.628Z,100625.44
2022-09-30T12:21:07.446Z,100623.69
2022-09-30T12:23:35.668Z,100621.31
2022-09-30T12:26:02.265Z,100620.69
2022-09-30T12:28:49.372Z,100626.25
2022-09-30T12:31:27.897Z,100618.94
2022-09-30T12:34:09.581Z,100637.63
2022-09-30T12:36:42.286Z,100637.41
2022-09-30T12:39:23.063Z,100633.78
2022-09-30T12:41:52.977Z,100634.53
2022-09-30T12:44:31.167Z,100637.41
2022-09-30T12:47:16.331Z,100639.56
2022-09-30T12:49:42.638Z,100635.25
2022-09-30T12:52:16.133Z,100640.81
2022-09-30T12:55:02.785Z,100636.59
2022-09-30T12:57:32.611Z,100634.53
2022-09-30T13:00:03.319Z,100628.63
2022-09-30T13:02:36.522Z,100639.41
2022-09-30T13:05:28.109Z,100634.97
2022-09-30T13:08:03.629Z,100627.28
2022-09-30T13:10:33.050Z,100632.38
2022-09-30T13:13:19.758Z,100634.22
2022-09-30T13:15:46.260Z,100632.00
2022-09-30T13:18:21.478Z,100636.97
2022-09-30T13:20:57.668Z,100629.91
2022-09-30T13:23:43.195Z,100635.81
2022-09-30T13:26:28.755Z,100640.84
2022-09-30T13:29:16.115Z,100641.09
2022-09-30T13:31:45.397Z,100639.97
2022-09-30T13:34:12.499Z,100628.50
2022-09-30T13:36:39.583Z,100630.88
2022-09-30T13:39:16.508Z,100634.34
2022-09-30T13:41:42.817Z,100630.16
2022-09-30T13:44:10.349Z,100631.72
2022-09-30T13:46:39.886Z,100629.03
2022-09-30T13:49:10.724Z,100627.69
2022-09-30T13:51:37.976Z,100628.91
2022-09-30T13:54:08.504Z,100629.78
2022-09-30T13:56:35.182Z,100630.50
2022-09-30T13:59:09.834Z,100627.69
2022-09-30T14:01:36.225Z,100623.38
2022-09-30T14:04:17.058Z,100621.78
2022-09-30T14:06:45.322Z,100617.38
2022-09-30T14:09:18.849Z,100621.66
2022-09-30T14:11:49.704Z,100621.06
2022-09-30T14:14:21.959Z,100626.63
2022-09-30T14:16:52.534Z,100615.25
2022-09-30T14:19:35.821Z,100619.50
2022-09-30T14:22:03.675Z,100621.31
2022-09-30T14:24:35.103Z,100618.72
2022-09-30T14:27:22.511Z,100627.63
2022-09-30T14:30:02.245Z,100627.69
2022-09-30T14:32:29.032Z,100630.41
2022-09-30T14:34:55.378Z,100631.06
2022-09-30T14:37:24.464Z,100628.09
2022-09-30T14:39:50.790Z,100628.16
2022-09-30T14:42:24.475Z,100630.91
2022-09-30T14:44:50.810Z,100622.06
2022-09-30T14:47:17.169Z,100639.78
2022-09-30T14:49:43.981Z,100629.09
2022-09-30T14:52:28.975Z,100631.19
2022-09-30T14:54:55.319Z,100632.59
2022-09-30T14:57:23.646Z,100635.38
2022-09-30T14:59:49.967Z,100636.34
2022-09-30T15:02:18.354Z,100641.25
2022-09-30T15:04:48.501Z,100643.34
2022-09-30T15:07:14.973Z,100638.50
2022-09-30T15:09:43.452Z,100637.88
2022-09-30T15:12:14.014Z,100635.38
2022-09-30T15:14:50.061Z,100640.53
2022-09-30T15:17:19.734Z,100636.53
2022-09-30T15:19:46.126Z,100648.53
2022-09-30T15:22:13.131Z,100644.28
2022-09-30T15:24:40.413Z,100640.28
2022-09-30T15:27:13.615Z,100641.88
2022-09-30T15:29:53.537Z,100632.56
2022-09-30T15:32:21.132Z,100644.22
2022-09-30T15:34:47.496Z,100633.94
2022-09-30T15:37:20.544Z,100642.59
2022-09-30T15:40:05.667Z,100643.97
2022-09-30T15:42:35.199Z,100630.75
2022-09-30T15:45:04.747Z,100631.13
2022-09-30T15:47:31.099Z,100638.31
2022-09-30T15:49:57.461Z,100644.63
2022-09-30T15:52:30.568Z,100630.75
2022-09-30T15:54:57.114Z,100636.91
2022-09-30T15:57:40.147Z,100638.50
2022-09-30T16:00:08.560Z,100636.84
2022-09-30T16:02:34.990Z,100643.22
2022-09-30T16:05:05.302Z,100633.16
2022-09-30T16:07:31.881Z,100642.94
2022-09-30T16:09:59.169Z,100645.09
2022-09-30T16:12:32.172Z,100647.03
2022-09-30T16:14:59.976Z,100645.28
2022-09-30T16:17:33.520Z,100648.72
2022-09-30T16:20:00.481Z,100638.38
2022-09-30T16:22:42.036Z,100645.63
2022-09-30T16:25:28.105Z,100644.41
2022-09-30T16:28:13.667Z,100649.38
2022-09-30T16:30:46.857Z,100655.06
2022-09-30T16:33:13.591Z,100659.81
2022-09-30T16:35:41.062Z,100663.72
2022-09-30T16:38:07.399Z,100655.84
2022-09-30T16:40:35.566Z,100661.34
2022-09-30T16:43:07.105Z,100655.59
2022-09-30T16:45:34.071Z,100657.03
2022-09-30T16:48:01.612Z,100651.22
2022-09-30T16:50:48.020Z,100649.91
2022-09-30T16:53:14.355Z,100652.63
2022-09-30T16:55:40.773Z,100653.59
2022-09-30T16:58:09.327Z,100648.09
2022-09-30T17:00:35.769Z,100652.97
2022-09-30T17:03:02.203Z,100653.31
2022-09-30T17:05:28.521Z,100649.56
2022-09-30T17:07:58.329Z,100645.31
2022-09-30T17:10:25.800Z,100652.63
2022-09-30T17:12:52.115Z,100655.34
2022-09-30T17:15:18.689Z,100652.53
2022-09-30T17:17:45.206Z,100653.63
2022-09-30T17:20:11.513Z,100655.22
2022-09-30T17:22:37.883Z,100658.75
2022-09-30T17:25:04.254Z,100661.38
2022-09-30T17:27:30.579Z,100666.03
2022-09-30T17:29:56.922Z,100658.50
2022-09-30T17:32:23.331Z,100663.81
2022-09-30T17:34:50.098Z,100654.59
2022-09-30T17:37:16.413Z,100653.16
2022-09-30T17:39:42.726Z,100652.91
2022-09-30T17:42:31.059Z,100661.97
2022-09-30T17:44:57.424Z,100655.03
2022-09-30T17:47:23.791Z,100651.75
2022-09-30T17:49:50.107Z,100656.78
2022-09-30T17:52:18.056Z,100660.38
2022-09-30T17:54:46.641Z,100665.66
2022-09-30T17:57:16.212Z,100668.78
2022-09-30T17:59:46.510Z,100670.16
2022-09-30T18:02:15.172Z,100659.22
2022-09-30T18:04:41.601Z,100662.00
2022-09-30T18:07:10.182Z,100655.53
2022-09-30T18:09:37.857Z,100663.59
2022-09-30T18:12:04.603Z,100670.16
2022-09-30T18:14:36.034Z,100669.44
2022-09-30T18:17:02.930Z,100664.66
2022-09-30T18:19:29.247Z,100670.00
2022-09-30T18:21:55.697Z,100667.06
2022-09-30T18:24:41.972Z,100664.41
2022-09-30T18:27:08.282Z,100673.28
2022-09-30T18:29:34.657Z,100663.34
2022-09-30T18:32:01.725Z,100669.94
2022-09-30T18:34:28.117Z,100656.84
2022-09-30T18:36:54.488Z,100665.31
2022-09-30T18:39:21.584Z,100651.16
2022-09-30T18:41:48.681Z,100657.16
2022-09-30T18:44:15.179Z,100663.34
2022-09-30T18:46:42.885Z,100661.88
2022-09-30T18:49:10.603Z,100663.34
2022-09-30T18:51:36.981Z,100658.91
2022-09-30T18:54:05.580Z,100658.91
2022-09-30T18:56:32.376Z,100663.34
2022-09-30T18:59:00.228Z,100655.34
2022-09-30T19:01:27.659Z,100665.56
2022-09-30T19:03:54.117Z,100666.47
2022-09-30T19:06:20.446Z,100659.91
2022-09-30T19:08:46.778Z,100665.66
2022-09-30T19:11:17.468Z,100656.75
2022-09-30T19:13:44.378Z,100664.16
2022-09-30T19:16:11.171Z,100655.63
2022-09-30T19:18:39.138Z,100655.78
2022-09-30T19:21:10.082Z,100661.53
2022-09-30T19:23:36.704Z,100654.16
2022-09-30T19:26:03.142Z,100658.31
2022-09-30T19:28:31.152Z,100660.66
2022-09-30T19:31:00.059Z,100662.88
2022-09-30T19:33:27.233Z,100653.75
2022-09-30T19:36:14.884Z,100661.56
2022-09-30T19:38:42.325Z,100660.28
2022-09-30T19:41:08.890Z,100655.66
2022-09-30T19:43:35.440Z,100653.66
2022-09-30T19:46:02.585Z,100659.44
2022-09-30T19:48:29.316Z,100655.22
2022-09-30T19:50:58.398Z,100652.19
2022-09-30T19:53:30.717Z,100662.88
2022-09-30T19:56:04.642Z,100658.31
2022-09-30T19:58:34.483Z,100657.47
2022-09-30T20:01:01.317Z,100658.09
2022-09-30T20:03:29.301Z,100659.34
2022-09-30T20:06:05.712Z,100671.94
2022-09-30T20:08:32.671Z,100658.34
2022-09-30T20:11:03.173Z,100663.66
2022-09-30T20:13:29.595Z,100670.38
2022-09-30T20:15:58.164Z,100654.47
2022-09-30T20:18:24.550Z,100670.56
2022-09-30T20:20:50.909Z,100670.41
2022-09-30T20:23:17.591Z,100663.25
2022-09-30T20:25:43.892Z,100662.59
2022-09-30T20:28:10.276Z,100654.78
2022-09-30T20:30:45.267Z,100658.00
2022-09-30T20:33:12.427Z,100655.44
2022-09-30T20:35:38.978Z,100657.00
2022-09-30T20:38:06.729Z,100660.41
2022-09-30T20:40:33.196Z,100658.31
2022-09-30T20:43:01.696Z,100657.66
2022-09-30T20:45:28.423Z,100656.19
2022-09-30T20:47:55.227Z,100654.13
2022-09-30T20:50:35.001Z,100662.03
2022-09-30T20:53:04.934Z,100657.97
2022-09-30T20:55:33.113Z,100648.78
2022-09-30T20:57:59.426Z,100638.75
2022-09-30T21:00:25.735Z,100640.88
2022-09-30T21:02:52.294Z,100645.19
2022-09-30T21:05:18.612Z,100639.34
2022-09-30T21:07:45.048Z,100637.03
2022-09-30T21:10:11.554Z,100641.25
2022-09-30T21:12:38.207Z,100638.81
2022-09-30T21:15:04.767Z,100640.38
2022-09-30T21:17:31.727Z,100640.13
2022-09-30T21:19:58.639Z,100633.41
2022-09-30T21:22:24.951Z,100623.56
2022-09-30T21:24:51.261Z,100629.56
2022-09-30T21:27:17.568Z,100631.63
2022-09-30T21:29:43.872Z,100627.25
2022-09-30T21:32:10.318Z,100623.00
2022-09-30T21:34:36.704Z,100621.41
2022-09-30T21:37:03.092Z,100623.56
2022-09-30T21:39:29.418Z,100625.63
2022-09-30T21:41:55.909Z,100625.47
2022-09-30T21:44:22.209Z,100631.25
2022-09-30T21:46:50.239Z,100634.03
2022-09-30T21:49:17.367Z,100626.47
2022-09-30T21:51:43.691Z,100643.97
2022-09-30T21:54:11.620Z,100646.31
2022-09-30T21:56:38.223Z,100643.38
2022-09-30T21:59:04.691Z,100649.13
2022-09-30T22:01:31.378Z,100649.53
2022-09-30T22:03:57.907Z,100644.25
2022-09-30T22:06:24.294Z,100643.88
2022-09-30T22:08:50.949Z,100649.28
2022-09-30T22:11:18.202Z,100642.94
2022-09-30T22:13:45.071Z,100642.09
2022-09-30T22:16:11.857Z,100643.59
2022-09-30T22:18:38.640Z,100647.38
2022-09-30T22:21:05.748Z,100646.25
2022-09-30T22:23:32.075Z,100649.38
2022-09-30T22:25:58.516Z,100654.47
2022-09-30T22:28:24.860Z,100658.09
2022-09-30T22:30:51.219Z,100651.59
2022-09-30T22:33:36.153Z,100653.06
2022-09-30T22:36:21.011Z,100653.81
2022-09-30T22:38:48.486Z,100651.59
2022-09-30T22:41:16.046Z,100646.59
2022-09-30T22:43:42.371Z,100649.47
2022-09-30T22:46:08.741Z,100648.06
2022-09-30T22:48:35.256Z,100646.66
2022-09-30T22:51:01.755Z,100640.81
2022-09-30T22:53:28.094Z,100630.03
2022-09-30T22:55:54.478Z,100635.81
2022-09-30T22:58:20.967Z,100634.41
2022-09-30T23:00:57.394Z,100632.94
2022-09-30T23:03:25.347Z,100637.94
2022-09-30T23:05:52.308Z,100632.19
2022-09-30T23:08:18.636Z,100623.56
2022-09-30T23:10:45.562Z,100621.41
2022-09-30T23:13:13.251Z,100608.44
2022-09-30T23:15:39.565Z,100614.84
2022-09-30T23:18:05.897Z,100616.22
2022-09-30T23:20:32.442Z,100609.06
2022-09-30T23:22:58.800Z,100609.06
2022-09-30T23:25:25.141Z,100612.59
2022-09-30T23:27:51.552Z,100606.19
2022-09-30T23:30:17.922Z,100608.34
2022-09-30T23:32:44.274Z,100597.47
2022-09-30T23:35:10.593Z,100601.09
2022-09-30T23:37:36.926Z,100593.13
2022-09-30T23:40:03.249Z,100600.34
2022-09-30T23:42:31.872Z,100598.88
2022-09-30T23:44:58.196Z,100597.41
2022-09-30T23:47:24.509Z,100591.63
2022-09-30T23:49:50.912Z,100584.41
2022-09-30T23:52:17.778Z,100585.88
2022-09-30T23:54:44.126Z,100592.28
2022-09-30T23:57:10.692Z,100584.41
2022-09-30T23:59:37.723Z,100582.94
